sensor_id;sensor_type;location;lat;lon;timestamp;temperature;humidity
56725;DHT22;42608;52.776;6.968;2023-09-19T00:00:26;15.90;99.90
56725;DHT22;42608;52.776;6.968;2023-09-19T00:02:53;15.90;99.90
56725;DHT22;42608;52.776;6.968;2023-09-19T00:05:20;15.90;99.90
56725;DHT22;42608;52.776;6.968;2023-09-19T00:07:50;15.80;99.90
56725;DHT22;42608;52.776;6.968;2023-09-19T00:10:16;15.80;99.90
56725;DHT22;42608;52.776;6.968;2023-09-19T00:12:45;15.80;99.90
56725;DHT22;42608;52.776;6.968;2023-09-19T00:15:11;15.70;99.90
56725;DHT22;42608;52.776;6.968;2023-09-19T00:17:37;15.70;99.90
56725;DHT22;42608;52.776;6.968;2023-09-19T00:20:09;15.60;99.90
56725;DHT22;42608;52.776;6.968;2023-09-19T00:22:41;15.60;99.90
56725;DHT22;42608;52.776;6.968;2023-09-19T00:25:10;15.50;99.90
56725;DHT22;42608;52.776;6.968;2023-09-19T00:27:40;15.50;99.90
56725;DHT22;42608;52.776;6.968;2023-09-19T00:30:08;15.50;99.90
56725;DHT22;42608;52.776;6.968;2023-09-19T00:32:38;15.50;99.90
56725;DHT22;42608;52.776;6.968;2023-09-19T00:35:04;15.40;99.90
56725;DHT22;42608;52.776;6.968;2023-09-19T00:37:30;15.40;99.90
56725;DHT22;42608;52.776;6.968;2023-09-19T00:39:55;15.40;99.90
56725;DHT22;42608;52.776;6.968;2023-09-19T00:42:22;15.40;99.90
56725;DHT22;42608;52.776;6.968;2023-09-19T00:44:48;15.30;99.90
56725;DHT22;42608;52.776;6.968;2023-09-19T00:47:17;15.40;99.90
56725;DHT22;42608;52.776;6.968;2023-09-19T00:49:43;15.40;99.90
56725;DHT22;42608;52.776;6.968;2023-09-19T00:52:09;15.40;99.90
56725;DHT22;42608;52.776;6.968;2023-09-19T00:54:35;15.40;99.90
56725;DHT22;42608;52.776;6.968;2023-09-19T00:57:04;15.40;99.90
56725;DHT22;42608;52.776;6.968;2023-09-19T00:59:30;15.40;99.90
56725;DHT22;42608;52.776;6.968;2023-09-19T01:01:56;15.40;99.90
56725;DHT22;42608;52.776;6.968;2023-09-19T01:04:22;15.30;99.90
56725;DHT22;42608;52.776;6.968;2023-09-19T01:06:48;15.30;99.90
56725;DHT22;42608;52.776;6.968;2023-09-19T01:09:19;15.30;99.90
56725;DHT22;42608;52.776;6.968;2023-09-19T01:11:45;15.30;99.90
56725;DHT22;42608;52.776;6.968;2023-09-19T01:14:20;15.30;99.90
56725;DHT22;42608;52.776;6.968;2023-09-19T01:16:59;15.20;99.90
56725;DHT22;42608;52.776;6.968;2023-09-19T01:21:55;15.20;99.90
56725;DHT22;42608;52.776;6.968;2023-09-19T01:29:33;15.20;99.90
56725;DHT22;42608;52.776;6.968;2023-09-19T01:32:04;15.20;99.90
56725;DHT22;42608;52.776;6.968;2023-09-19T01:34:50;15.20;99.90
56725;DHT22;42608;52.776;6.968;2023-09-19T01:37:18;15.20;99.90
56725;DHT22;42608;52.776;6.968;2023-09-19T01:39:55;15.10;99.90
56725;DHT22;42608;52.776;6.968;2023-09-19T01:42:34;15.10;99.90
56725;DHT22;42608;52.776;6.968;2023-09-19T01:47:33;15.10;99.90
56725;DHT22;42608;52.776;6.968;2023-09-19T01:50:12;15.10;99.90
56725;DHT22;42608;52.776;6.968;2023-09-19T01:52:41;15.10;99.90
56725;DHT22;42608;52.776;6.968;2023-09-19T01:55:09;15.10;99.90
56725;DHT22;42608;52.776;6.968;2023-09-19T02:00:34;15.00;99.90
56725;DHT22;42608;52.776;6.968;2023-09-19T02:03:01;15.00;99.90
56725;DHT22;42608;52.776;6.968;2023-09-19T02:05:27;15.00;99.90
56725;DHT22;42608;52.776;6.968;2023-09-19T02:07:53;15.00;99.90
56725;DHT22;42608;52.776;6.968;2023-09-19T02:10:19;14.90;99.90
56725;DHT22;42608;52.776;6.968;2023-09-19T02:12:45;15.00;99.90
56725;DHT22;42608;52.776;6.968;2023-09-19T02:15:10;14.90;99.90
56725;DHT22;42608;52.776;6.968;2023-09-19T02:17:36;14.90;99.90
56725;DHT22;42608;52.776;6.968;2023-09-19T02:20:02;14.90;99.90
56725;DHT22;42608;52.776;6.968;2023-09-19T02:22:29;14.80;99.90
56725;DHT22;42608;52.776;6.968;2023-09-19T02:24:54;14.80;99.90
56725;DHT22;42608;52.776;6.968;2023-09-19T02:27:23;14.80;99.90
56725;DHT22;42608;52.776;6.968;2023-09-19T02:29:49;14.80;99.90
56725;DHT22;42608;52.776;6.968;2023-09-19T02:32:15;14.80;99.90
56725;DHT22;42608;52.776;6.968;2023-09-19T02:34:43;14.70;99.90
56725;DHT22;42608;52.776;6.968;2023-09-19T02:37:10;14.70;99.90
56725;DHT22;42608;52.776;6.968;2023-09-19T02:39:35;14.70;99.90
56725;DHT22;42608;52.776;6.968;2023-09-19T02:42:01;14.70;99.90
56725;DHT22;42608;52.776;6.968;2023-09-19T02:44:29;14.70;99.90
56725;DHT22;42608;52.776;6.968;2023-09-19T02:46:55;14.70;99.90
56725;DHT22;42608;52.776;6.968;2023-09-19T02:49:20;14.60;99.90
56725;DHT22;42608;52.776;6.968;2023-09-19T02:51:46;14.60;99.90
56725;DHT22;42608;52.776;6.968;2023-09-19T02:54:12;14.60;99.90
56725;DHT22;42608;52.776;6.968;2023-09-19T02:56:39;14.60;99.90
56725;DHT22;42608;52.776;6.968;2023-09-19T02:59:05;14.50;99.90
56725;DHT22;42608;52.776;6.968;2023-09-19T03:01:31;14.50;99.90
56725;DHT22;42608;52.776;6.968;2023-09-19T03:03:57;14.50;99.90
56725;DHT22;42608;52.776;6.968;2023-09-19T03:06:23;14.50;99.90
56725;DHT22;42608;52.776;6.968;2023-09-19T03:08:49;14.50;99.90
56725;DHT22;42608;52.776;6.968;2023-09-19T03:11:17;14.40;99.90
56725;DHT22;42608;52.776;6.968;2023-09-19T03:13:50;14.50;99.90
56725;DHT22;42608;52.776;6.968;2023-09-19T03:16:16;14.50;99.90
56725;DHT22;42608;52.776;6.968;2023-09-19T03:18:41;14.40;99.90
56725;DHT22;42608;52.776;6.968;2023-09-19T03:21:07;14.40;99.90
56725;DHT22;42608;52.776;6.968;2023-09-19T03:23:33;14.40;99.90
56725;DHT22;42608;52.776;6.968;2023-09-19T03:25:58;14.40;99.90
56725;DHT22;42608;52.776;6.968;2023-09-19T03:28:24;14.40;99.90
56725;DHT22;42608;52.776;6.968;2023-09-19T03:33:25;14.30;99.90
56725;DHT22;42608;52.776;6.968;2023-09-19T03:35:54;14.30;99.90
56725;DHT22;42608;52.776;6.968;2023-09-19T03:38:20;14.30;99.90
56725;DHT22;42608;52.776;6.968;2023-09-19T03:40:47;14.30;99.90
56725;DHT22;42608;52.776;6.968;2023-09-19T03:43:13;14.30;99.90
56725;DHT22;42608;52.776;6.968;2023-09-19T03:45:38;14.30;99.90
56725;DHT22;42608;52.776;6.968;2023-09-19T03:48:10;14.30;99.90
56725;DHT22;42608;52.776;6.968;2023-09-19T03:50:36;14.30;99.90
56725;DHT22;42608;52.776;6.968;2023-09-19T03:53:01;14.20;99.90
56725;DHT22;42608;52.776;6.968;2023-09-19T03:55:27;14.20;99.90
56725;DHT22;42608;52.776;6.968;2023-09-19T03:57:53;14.30;99.90
56725;DHT22;42608;52.776;6.968;2023-09-19T04:00:19;14.30;99.90
56725;DHT22;42608;52.776;6.968;2023-09-19T04:02:49;14.30;99.90
56725;DHT22;42608;52.776;6.968;2023-09-19T04:05:14;14.30;99.90
56725;DHT22;42608;52.776;6.968;2023-09-19T04:07:40;14.30;99.90
56725;DHT22;42608;52.776;6.968;2023-09-19T04:10:05;14.30;99.90
56725;DHT22;42608;52.776;6.968;2023-09-19T04:12:34;14.30;99.90
56725;DHT22;42608;52.776;6.968;2023-09-19T04:14:59;14.30;99.90
56725;DHT22;42608;52.776;6.968;2023-09-19T04:17:25;14.30;99.90
56725;DHT22;42608;52.776;6.968;2023-09-19T04:19:51;14.30;99.90
56725;DHT22;42608;52.776;6.968;2023-09-19T04:22:16;14.30;99.90
56725;DHT22;42608;52.776;6.968;2023-09-19T04:24:42;14.30;99.90
56725;DHT22;42608;52.776;6.968;2023-09-19T04:27:08;14.40;99.90
56725;DHT22;42608;52.776;6.968;2023-09-19T04:29:37;14.40;99.90
56725;DHT22;42608;52.776;6.968;2023-09-19T04:32:03;14.40;99.90
56725;DHT22;42608;52.776;6.968;2023-09-19T04:34:31;14.40;99.90
56725;DHT22;42608;52.776;6.968;2023-09-19T04:36:57;14.40;99.90
56725;DHT22;42608;52.776;6.968;2023-09-19T04:39:26;14.40;99.90
56725;DHT22;42608;52.776;6.968;2023-09-19T04:41:52;14.40;99.90
56725;DHT22;42608;52.776;6.968;2023-09-19T04:44:18;14.40;99.90
56725;DHT22;42608;52.776;6.968;2023-09-19T04:46:44;14.30;99.90
56725;DHT22;42608;52.776;6.968;2023-09-19T04:49:13;14.30;99.90
56725;DHT22;42608;52.776;6.968;2023-09-19T04:51:39;14.30;99.90
56725;DHT22;42608;52.776;6.968;2023-09-19T04:54:05;14.30;99.90
56725;DHT22;42608;52.776;6.968;2023-09-19T04:56:31;14.30;99.90
56725;DHT22;42608;52.776;6.968;2023-09-19T04:58:58;14.30;99.90
56725;DHT22;42608;52.776;6.968;2023-09-19T05:01:24;14.30;99.90
56725;DHT22;42608;52.776;6.968;2023-09-19T05:03:49;14.30;99.90
56725;DHT22;42608;52.776;6.968;2023-09-19T05:06:18;14.30;99.90
56725;DHT22;42608;52.776;6.968;2023-09-19T05:08:43;14.30;99.90
56725;DHT22;42608;52.776;6.968;2023-09-19T05:11:09;14.30;99.90
56725;DHT22;42608;52.776;6.968;2023-09-19T05:13:34;14.30;99.90
56725;DHT22;42608;52.776;6.968;2023-09-19T05:16:00;14.30;99.90
56725;DHT22;42608;52.776;6.968;2023-09-19T05:18:29;14.30;99.90
56725;DHT22;42608;52.776;6.968;2023-09-19T05:20:54;14.30;99.90
56725;DHT22;42608;52.776;6.968;2023-09-19T05:23:21;14.20;99.90
56725;DHT22;42608;52.776;6.968;2023-09-19T05:25:47;14.20;99.90
56725;DHT22;42608;52.776;6.968;2023-09-19T05:28:12;14.20;99.90
56725;DHT22;42608;52.776;6.968;2023-09-19T05:30:40;14.20;99.90
56725;DHT22;42608;52.776;6.968;2023-09-19T05:33:06;14.20;99.90
56725;DHT22;42608;52.776;6.968;2023-09-19T05:35:33;14.20;99.90
56725;DHT22;42608;52.776;6.968;2023-09-19T05:37:58;14.10;99.90
56725;DHT22;42608;52.776;6.968;2023-09-19T05:40:25;14.10;99.90
56725;DHT22;42608;52.776;6.968;2023-09-19T05:42:50;14.10;99.90
56725;DHT22;42608;52.776;6.968;2023-09-19T05:45:16;14.10;99.90
56725;DHT22;42608;52.776;6.968;2023-09-19T05:47:48;14.10;99.90
56725;DHT22;42608;52.776;6.968;2023-09-19T05:50:14;14.10;99.90
56725;DHT22;42608;52.776;6.968;2023-09-19T05:52:42;14.00;99.90
56725;DHT22;42608;52.776;6.968;2023-09-19T05:55:08;14.00;99.90
56725;DHT22;42608;52.776;6.968;2023-09-19T05:57:34;14.00;99.90
56725;DHT22;42608;52.776;6.968;2023-09-19T05:59:59;14.00;99.90
56725;DHT22;42608;52.776;6.968;2023-09-19T06:02:25;14.00;99.90
56725;DHT22;42608;52.776;6.968;2023-09-19T06:04:54;14.00;99.90
56725;DHT22;42608;52.776;6.968;2023-09-19T06:07:23;14.00;99.90
56725;DHT22;42608;52.776;6.968;2023-09-19T06:09:52;14.00;99.90
56725;DHT22;42608;52.776;6.968;2023-09-19T06:12:19;14.00;99.90
56725;DHT22;42608;52.776;6.968;2023-09-19T06:14:44;13.90;99.90
56725;DHT22;42608;52.776;6.968;2023-09-19T06:17:10;13.90;99.90
56725;DHT22;42608;52.776;6.968;2023-09-19T06:19:36;13.90;99.90
56725;DHT22;42608;52.776;6.968;2023-09-19T06:22:01;13.90;99.90
56725;DHT22;42608;52.776;6.968;2023-09-19T06:24:27;13.90;99.90
56725;DHT22;42608;52.776;6.968;2023-09-19T06:26:53;13.90;99.90
56725;DHT22;42608;52.776;6.968;2023-09-19T06:29:20;13.90;99.90
56725;DHT22;42608;52.776;6.968;2023-09-19T06:31:48;14.00;99.90
56725;DHT22;42608;52.776;6.968;2023-09-19T06:34:14;14.00;99.90
56725;DHT22;42608;52.776;6.968;2023-09-19T06:36:40;14.00;99.90
56725;DHT22;42608;52.776;6.968;2023-09-19T06:39:10;14.00;99.90
56725;DHT22;42608;52.776;6.968;2023-09-19T06:41:37;14.00;99.90
56725;DHT22;42608;52.776;6.968;2023-09-19T06:44:03;14.00;99.90
56725;DHT22;42608;52.776;6.968;2023-09-19T06:46:30;14.00;99.90
56725;DHT22;42608;52.776;6.968;2023-09-19T06:49:00;14.10;99.90
56725;DHT22;42608;52.776;6.968;2023-09-19T06:51:28;14.10;99.90
56725;DHT22;42608;52.776;6.968;2023-09-19T06:53:55;14.10;99.90
56725;DHT22;42608;52.776;6.968;2023-09-19T06:56:22;14.10;99.90
56725;DHT22;42608;52.776;6.968;2023-09-19T06:58:50;14.10;99.90
56725;DHT22;42608;52.776;6.968;2023-09-19T07:01:15;14.10;99.90
56725;DHT22;42608;52.776;6.968;2023-09-19T07:03:41;14.10;99.90
56725;DHT22;42608;52.776;6.968;2023-09-19T07:06:06;14.10;99.90
56725;DHT22;42608;52.776;6.968;2023-09-19T07:08:34;14.20;99.90
56725;DHT22;42608;52.776;6.968;2023-09-19T07:10:59;14.10;99.90
56725;DHT22;42608;52.776;6.968;2023-09-19T07:13:25;14.10;99.90
56725;DHT22;42608;52.776;6.968;2023-09-19T07:15:51;14.10;99.90
56725;DHT22;42608;52.776;6.968;2023-09-19T07:18:16;14.20;99.90
56725;DHT22;42608;52.776;6.968;2023-09-19T07:20:43;14.20;99.90
56725;DHT22;42608;52.776;6.968;2023-09-19T07:23:17;14.20;99.90
56725;DHT22;42608;52.776;6.968;2023-09-19T07:25:44;14.20;99.90
56725;DHT22;42608;52.776;6.968;2023-09-19T07:28:09;14.30;99.90
56725;DHT22;42608;52.776;6.968;2023-09-19T07:30:38;14.30;99.90
56725;DHT22;42608;52.776;6.968;2023-09-19T07:33:04;14.30;99.90
56725;DHT22;42608;52.776;6.968;2023-09-19T07:35:30;14.40;99.90
56725;DHT22;42608;52.776;6.968;2023-09-19T07:37:56;14.40;99.90
56725;DHT22;42608;52.776;6.968;2023-09-19T07:40:26;14.50;99.90
56725;DHT22;42608;52.776;6.968;2023-09-19T07:42:54;14.50;99.90
56725;DHT22;42608;52.776;6.968;2023-09-19T07:45:20;14.60;99.90
56725;DHT22;42608;52.776;6.968;2023-09-19T07:47:46;14.60;99.90
56725;DHT22;42608;52.776;6.968;2023-09-19T07:50:12;14.70;99.90
56725;DHT22;42608;52.776;6.968;2023-09-19T07:52:38;14.70;99.90
56725;DHT22;42608;52.776;6.968;2023-09-19T07:55:07;14.70;99.90
56725;DHT22;42608;52.776;6.968;2023-09-19T07:57:35;14.70;99.90
56725;DHT22;42608;52.776;6.968;2023-09-19T08:00:00;14.80;99.90
56725;DHT22;42608;52.776;6.968;2023-09-19T08:02:26;14.80;99.90
56725;DHT22;42608;52.776;6.968;2023-09-19T08:04:53;14.90;99.90
56725;DHT22;42608;52.776;6.968;2023-09-19T08:07:19;14.90;99.90
56725;DHT22;42608;52.776;6.968;2023-09-19T08:09:44;14.90;99.90
56725;DHT22;42608;52.776;6.968;2023-09-19T08:12:11;15.00;99.90
56725;DHT22;42608;52.776;6.968;2023-09-19T08:14:37;15.00;99.90
56725;DHT22;42608;52.776;6.968;2023-09-19T08:17:03;15.10;99.90
56725;DHT22;42608;52.776;6.968;2023-09-19T08:19:31;15.10;99.90
56725;DHT22;42608;52.776;6.968;2023-09-19T08:21:57;15.10;99.90
56725;DHT22;42608;52.776;6.968;2023-09-19T08:24:24;15.20;99.90
56725;DHT22;42608;52.776;6.968;2023-09-19T08:26:50;15.20;99.90
56725;DHT22;42608;52.776;6.968;2023-09-19T08:29:16;15.30;99.90
56725;DHT22;42608;52.776;6.968;2023-09-19T08:31:42;15.30;99.90
56725;DHT22;42608;52.776;6.968;2023-09-19T08:34:08;15.30;99.90
56725;DHT22;42608;52.776;6.968;2023-09-19T08:36:37;15.40;99.90
56725;DHT22;42608;52.776;6.968;2023-09-19T08:39:03;15.50;99.90
56725;DHT22;42608;52.776;6.968;2023-09-19T08:41:29;15.50;99.90
56725;DHT22;42608;52.776;6.968;2023-09-19T08:43:58;15.50;99.90
56725;DHT22;42608;52.776;6.968;2023-09-19T08:46:27;15.50;99.90
56725;DHT22;42608;52.776;6.968;2023-09-19T08:49:03;15.50;99.90
56725;DHT22;42608;52.776;6.968;2023-09-19T08:51:45;15.60;99.90
56725;DHT22;42608;52.776;6.968;2023-09-19T08:54:28;15.60;99.90
56725;DHT22;42608;52.776;6.968;2023-09-19T08:56:54;15.70;99.90
56725;DHT22;42608;52.776;6.968;2023-09-19T08:59:22;15.70;99.90
56725;DHT22;42608;52.776;6.968;2023-09-19T09:01:49;15.70;99.90
56725;DHT22;42608;52.776;6.968;2023-09-19T09:04:18;15.80;99.90
56725;DHT22;42608;52.776;6.968;2023-09-19T09:06:45;15.80;99.90
56725;DHT22;42608;52.776;6.968;2023-09-19T09:09:14;15.90;99.90
56725;DHT22;42608;52.776;6.968;2023-09-19T09:11:43;15.90;99.90
56725;DHT22;42608;52.776;6.968;2023-09-19T09:14:08;16.00;99.90
56725;DHT22;42608;52.776;6.968;2023-09-19T09:16:34;16.00;99.90
56725;DHT22;42608;52.776;6.968;2023-09-19T09:19:00;16.00;99.90
56725;DHT22;42608;52.776;6.968;2023-09-19T09:21:25;16.00;99.90
56725;DHT22;42608;52.776;6.968;2023-09-19T09:23:51;16.10;99.90
56725;DHT22;42608;52.776;6.968;2023-09-19T09:26:51;16.10;99.90
56725;DHT22;42608;52.776;6.968;2023-09-19T09:29:12;16.20;99.90
56725;DHT22;42608;52.776;6.968;2023-09-19T09:31:38;16.30;99.90
56725;DHT22;42608;52.776;6.968;2023-09-19T09:34:04;16.30;99.90
56725;DHT22;42608;52.776;6.968;2023-09-19T09:36:34;16.40;99.90
56725;DHT22;42608;52.776;6.968;2023-09-19T09:38:59;16.50;99.90
56725;DHT22;42608;52.776;6.968;2023-09-19T09:41:41;16.50;99.90
56725;DHT22;42608;52.776;6.968;2023-09-19T09:44:14;16.60;99.90
56725;DHT22;42608;52.776;6.968;2023-09-19T09:46:43;16.60;99.90
56725;DHT22;42608;52.776;6.968;2023-09-19T09:49:18;16.70;99.90
56725;DHT22;42608;52.776;6.968;2023-09-19T09:52:03;16.70;99.90
56725;DHT22;42608;52.776;6.968;2023-09-19T09:54:33;16.80;99.90
56725;DHT22;42608;52.776;6.968;2023-09-19T09:57:02;16.80;99.90
56725;DHT22;42608;52.776;6.968;2023-09-19T10:02:28;16.90;99.90
56725;DHT22;42608;52.776;6.968;2023-09-19T10:05:38;17.00;99.90
56725;DHT22;42608;52.776;6.968;2023-09-19T10:08:12;17.00;99.90
56725;DHT22;42608;52.776;6.968;2023-09-19T10:10:39;17.00;99.90
56725;DHT22;42608;52.776;6.968;2023-09-19T10:13:05;17.10;99.90
56725;DHT22;42608;52.776;6.968;2023-09-19T10:15:31;17.10;99.90
56725;DHT22;42608;52.776;6.968;2023-09-19T10:18:00;17.10;99.90
56725;DHT22;42608;52.776;6.968;2023-09-19T10:20:26;17.20;99.90
56725;DHT22;42608;52.776;6.968;2023-09-19T10:22:56;17.20;99.90
56725;DHT22;42608;52.776;6.968;2023-09-19T10:25:25;17.20;99.90
56725;DHT22;42608;52.776;6.968;2023-09-19T10:27:50;17.20;99.90
56725;DHT22;42608;52.776;6.968;2023-09-19T10:30:18;17.30;99.90
56725;DHT22;42608;52.776;6.968;2023-09-19T10:32:45;17.30;99.90
56725;DHT22;42608;52.776;6.968;2023-09-19T10:35:12;17.40;99.90
56725;DHT22;42608;52.776;6.968;2023-09-19T10:37:40;17.40;99.90
56725;DHT22;42608;52.776;6.968;2023-09-19T10:40:06;17.40;99.90
56725;DHT22;42608;52.776;6.968;2023-09-19T10:42:34;17.50;99.90
56725;DHT22;42608;52.776;6.968;2023-09-19T10:45:03;17.50;99.90
56725;DHT22;42608;52.776;6.968;2023-09-19T10:47:32;17.50;99.90
56725;DHT22;42608;52.776;6.968;2023-09-19T10:49:58;17.60;99.90
56725;DHT22;42608;52.776;6.968;2023-09-19T10:52:25;17.60;99.90
56725;DHT22;42608;52.776;6.968;2023-09-19T10:54:52;17.60;99.90
56725;DHT22;42608;52.776;6.968;2023-09-19T10:57:23;17.60;99.90
56725;DHT22;42608;52.776;6.968;2023-09-19T11:00:22;17.60;99.90
56725;DHT22;42608;52.776;6.968;2023-09-19T11:05:32;17.70;99.90
56725;DHT22;42608;52.776;6.968;2023-09-19T11:07:59;17.80;99.90
56725;DHT22;42608;52.776;6.968;2023-09-19T11:13:26;17.90;99.90
56725;DHT22;42608;52.776;6.968;2023-09-19T11:18:57;17.80;99.90
56725;DHT22;42608;52.776;6.968;2023-09-19T11:26:43;17.80;99.90
56725;DHT22;42608;52.776;6.968;2023-09-19T11:29:30;17.80;99.90
56725;DHT22;42608;52.776;6.968;2023-09-19T11:31:57;17.90;99.90
56725;DHT22;42608;52.776;6.968;2023-09-19T11:42:53;17.90;99.90
56725;DHT22;42608;52.776;6.968;2023-09-19T11:48:23;18.00;99.90
56725;DHT22;42608;52.776;6.968;2023-09-19T11:50:50;18.00;99.90
56725;DHT22;42608;52.776;6.968;2023-09-19T11:53:17;18.00;99.90
56725;DHT22;42608;52.776;6.968;2023-09-19T11:55:42;18.10;99.90
56725;DHT22;42608;52.776;6.968;2023-09-19T11:58:11;18.10;99.90
56725;DHT22;42608;52.776;6.968;2023-09-19T12:00:39;18.20;99.90
56725;DHT22;42608;52.776;6.968;2023-09-19T12:03:09;18.20;99.90
56725;DHT22;42608;52.776;6.968;2023-09-19T12:05:36;18.30;99.90
56725;DHT22;42608;52.776;6.968;2023-09-19T12:08:03;18.30;99.90
56725;DHT22;42608;52.776;6.968;2023-09-19T12:10:29;18.40;99.90
56725;DHT22;42608;52.776;6.968;2023-09-19T12:12:55;18.30;99.90
56725;DHT22;42608;52.776;6.968;2023-09-19T12:15:25;18.40;99.90
56725;DHT22;42608;52.776;6.968;2023-09-19T12:17:59;18.40;99.90
56725;DHT22;42608;52.776;6.968;2023-09-19T12:20:25;18.40;99.90
56725;DHT22;42608;52.776;6.968;2023-09-19T12:22:51;18.40;99.90
56725;DHT22;42608;52.776;6.968;2023-09-19T12:25:16;18.40;99.90
56725;DHT22;42608;52.776;6.968;2023-09-19T12:30:09;18.40;99.90
56725;DHT22;42608;52.776;6.968;2023-09-19T12:32:35;18.40;99.90
56725;DHT22;42608;52.776;6.968;2023-09-19T12:35:01;18.50;99.90
56725;DHT22;42608;52.776;6.968;2023-09-19T12:37:32;18.50;99.90
56725;DHT22;42608;52.776;6.968;2023-09-19T12:40:07;18.60;99.90
56725;DHT22;42608;52.776;6.968;2023-09-19T12:42:43;18.70;99.90
56725;DHT22;42608;52.776;6.968;2023-09-19T12:45:10;18.70;99.90
56725;DHT22;42608;52.776;6.968;2023-09-19T12:47:38;18.80;99.90
56725;DHT22;42608;52.776;6.968;2023-09-19T12:52:38;18.80;99.90
56725;DHT22;42608;52.776;6.968;2023-09-19T12:55:04;18.80;99.90
56725;DHT22;42608;52.776;6.968;2023-09-19T12:57:32;18.80;99.90
56725;DHT22;42608;52.776;6.968;2023-09-19T13:00:03;18.80;99.90
56725;DHT22;42608;52.776;6.968;2023-09-19T13:02:31;18.80;99.90
56725;DHT22;42608;52.776;6.968;2023-09-19T13:04:57;18.80;99.90
56725;DHT22;42608;52.776;6.968;2023-09-19T13:07:41;18.80;99.90
56725;DHT22;42608;52.776;6.968;2023-09-19T13:10:16;18.80;99.90
56725;DHT22;42608;52.776;6.968;2023-09-19T13:12:45;18.80;99.90
56725;DHT22;42608;52.776;6.968;2023-09-19T13:15:15;18.80;99.90
56725;DHT22;42608;52.776;6.968;2023-09-19T13:17:48;18.80;99.90
56725;DHT22;42608;52.776;6.968;2023-09-19T13:20:24;18.80;99.90
56725;DHT22;42608;52.776;6.968;2023-09-19T13:22:53;18.80;99.90
56725;DHT22;42608;52.776;6.968;2023-09-19T13:25:35;18.80;99.90
56725;DHT22;42608;52.776;6.968;2023-09-19T13:28:01;18.80;99.90
56725;DHT22;42608;52.776;6.968;2023-09-19T13:30:29;18.80;99.90
56725;DHT22;42608;52.776;6.968;2023-09-19T13:33:06;18.80;99.90
56725;DHT22;42608;52.776;6.968;2023-09-19T13:35:32;18.80;99.90
56725;DHT22;42608;52.776;6.968;2023-09-19T13:37:58;18.70;99.90
56725;DHT22;42608;52.776;6.968;2023-09-19T13:40:24;18.70;99.90
56725;DHT22;42608;52.776;6.968;2023-09-19T13:42:53;18.70;99.90
56725;DHT22;42608;52.776;6.968;2023-09-19T13:45:19;18.70;99.90
56725;DHT22;42608;52.776;6.968;2023-09-19T13:47:47;18.70;99.90
56725;DHT22;42608;52.776;6.968;2023-09-19T13:50:13;18.70;99.90
56725;DHT22;42608;52.776;6.968;2023-09-19T13:52:39;18.70;99.90
56725;DHT22;42608;52.776;6.968;2023-09-19T13:55:05;18.70;99.90
56725;DHT22;42608;52.776;6.968;2023-09-19T13:57:32;18.60;99.90
56725;DHT22;42608;52.776;6.968;2023-09-19T13:59:58;18.60;99.90
56725;DHT22;42608;52.776;6.968;2023-09-19T14:02:24;18.60;99.90
56725;DHT22;42608;52.776;6.968;2023-09-19T14:04:51;18.60;99.90
56725;DHT22;42608;52.776;6.968;2023-09-19T14:07:16;18.60;99.90
56725;DHT22;42608;52.776;6.968;2023-09-19T14:09:44;18.60;99.90
56725;DHT22;42608;52.776;6.968;2023-09-19T14:12:09;18.60;99.90
56725;DHT22;42608;52.776;6.968;2023-09-19T14:14:35;18.60;99.90
56725;DHT22;42608;52.776;6.968;2023-09-19T14:17:02;18.60;99.90
56725;DHT22;42608;52.776;6.968;2023-09-19T14:19:28;18.60;99.90
56725;DHT22;42608;52.776;6.968;2023-09-19T14:21:54;18.70;99.90
56725;DHT22;42608;52.776;6.968;2023-09-19T14:24:21;18.70;99.90
56725;DHT22;42608;52.776;6.968;2023-09-19T14:26:47;18.70;99.90
56725;DHT22;42608;52.776;6.968;2023-09-19T14:29:14;18.70;99.90
56725;DHT22;42608;52.776;6.968;2023-09-19T14:31:40;18.70;99.90
56725;DHT22;42608;52.776;6.968;2023-09-19T14:34:06;18.70;99.90
56725;DHT22;42608;52.776;6.968;2023-09-19T14:36:38;18.70;99.90
56725;DHT22;42608;52.776;6.968;2023-09-19T14:39:04;18.60;99.90
56725;DHT22;42608;52.776;6.968;2023-09-19T14:41:30;18.60;99.90
56725;DHT22;42608;52.776;6.968;2023-09-19T14:43:56;18.60;99.90
56725;DHT22;42608;52.776;6.968;2023-09-19T14:46:22;18.60;99.90
56725;DHT22;42608;52.776;6.968;2023-09-19T14:48:51;18.60;99.90
56725;DHT22;42608;52.776;6.968;2023-09-19T14:51:16;18.70;99.90
56725;DHT22;42608;52.776;6.968;2023-09-19T14:53:44;18.70;99.90
56725;DHT22;42608;52.776;6.968;2023-09-19T14:56:11;18.70;99.90
56725;DHT22;42608;52.776;6.968;2023-09-19T14:58:37;18.70;99.90
56725;DHT22;42608;52.776;6.968;2023-09-19T15:01:05;18.70;99.90
56725;DHT22;42608;52.776;6.968;2023-09-19T15:03:32;18.70;99.90
56725;DHT22;42608;52.776;6.968;2023-09-19T15:06:01;18.70;99.90
56725;DHT22;42608;52.776;6.968;2023-09-19T15:08:27;18.70;99.90
56725;DHT22;42608;52.776;6.968;2023-09-19T15:10:52;18.70;99.90
56725;DHT22;42608;52.776;6.968;2023-09-19T15:13:18;18.70;99.90
56725;DHT22;42608;52.776;6.968;2023-09-19T15:15:44;18.70;99.90
56725;DHT22;42608;52.776;6.968;2023-09-19T15:18:12;18.70;99.90
56725;DHT22;42608;52.776;6.968;2023-09-19T15:20:44;18.70;99.90
56725;DHT22;42608;52.776;6.968;2023-09-19T15:23:10;18.70;99.90
56725;DHT22;42608;52.776;6.968;2023-09-19T15:25:36;18.70;99.90
56725;DHT22;42608;52.776;6.968;2023-09-19T15:28:02;18.70;99.90
56725;DHT22;42608;52.776;6.968;2023-09-19T15:30:39;18.60;99.90
56725;DHT22;42608;52.776;6.968;2023-09-19T15:33:05;18.60;99.90
56725;DHT22;42608;52.776;6.968;2023-09-19T15:35:30;18.70;99.90
56725;DHT22;42608;52.776;6.968;2023-09-19T15:37:56;18.60;99.90
56725;DHT22;42608;52.776;6.968;2023-09-19T15:40:23;18.70;99.90
56725;DHT22;42608;52.776;6.968;2023-09-19T15:42:49;18.60;99.90
56725;DHT22;42608;52.776;6.968;2023-09-19T15:45:15;18.60;99.90
56725;DHT22;42608;52.776;6.968;2023-09-19T15:47:41;18.60;99.90
56725;DHT22;42608;52.776;6.968;2023-09-19T15:50:07;18.70;99.90
56725;DHT22;42608;52.776;6.968;2023-09-19T15:52:35;18.60;99.90
56725;DHT22;42608;52.776;6.968;2023-09-19T15:55:04;18.60;99.90
56725;DHT22;42608;52.776;6.968;2023-09-19T15:57:29;18.60;99.90
56725;DHT22;42608;52.776;6.968;2023-09-19T15:59:56;18.60;99.90
56725;DHT22;42608;52.776;6.968;2023-09-19T16:02:22;18.60;99.90
56725;DHT22;42608;52.776;6.968;2023-09-19T16:04:48;18.60;99.90
56725;DHT22;42608;52.776;6.968;2023-09-19T16:07:13;18.60;99.90
56725;DHT22;42608;52.776;6.968;2023-09-19T16:09:40;18.60;99.90
56725;DHT22;42608;52.776;6.968;2023-09-19T16:12:07;18.60;99.90
56725;DHT22;42608;52.776;6.968;2023-09-19T16:14:34;18.60;99.90
56725;DHT22;42608;52.776;6.968;2023-09-19T16:17:00;18.60;99.90
56725;DHT22;42608;52.776;6.968;2023-09-19T16:19:27;18.60;99.90
56725;DHT22;42608;52.776;6.968;2023-09-19T16:21:53;18.60;99.90